createdAt,value
2018-01-03T00:05:07.810Z,23.6
2018-01-03T00:08:04.884Z,23.6
2018-01-03T00:11:01.843Z,23.6
2018-01-03T00:13:58.750Z,23.6
2018-01-03T00:16:56.028Z,23.6
2018-01-03T00:22:49.819Z,23.6
2018-01-03T00:28:43.850Z,23.8
2018-01-03T00:31:41.099Z,23.8
2018-01-03T00:34:37.826Z,23.9
2018-01-03T00:37:34.903Z,23.9
2018-01-03T00:40:31.851Z,24
2018-01-03T00:43:28.852Z,24
2018-01-03T00:46:26.145Z,24.1
2018-01-03T00:49:22.906Z,24.2
2018-01-03T00:52:19.834Z,24.3
2018-01-03T00:55:16.890Z,24.4
2018-01-03T00:58:13.967Z,24.4
2018-01-03T01:01:10.826Z,24.5
2018-01-03T01:04:07.871Z,24.6
2018-01-03T01:07:04.870Z,24.7
2018-01-03T01:10:01.951Z,24.8
2018-01-03T01:15:55.960Z,25
2018-01-03T01:21:50.047Z,25.2
2018-01-03T01:24:47.083Z,25.2
2018-01-03T01:27:43.838Z,25.3
2018-01-03T01:30:40.996Z,25.4
2018-01-03T01:33:37.822Z,25.6
2018-01-03T01:36:34.845Z,25.6
2018-01-03T01:39:32.899Z,25.7
2018-01-03T01:45:25.909Z,25.8
2018-01-03T01:54:16.855Z,26
2018-01-03T01:57:13.823Z,26
2018-01-03T02:00:10.874Z,26.2
2018-01-03T02:09:01.965Z,26.4
2018-01-03T02:11:58.910Z,26.4
2018-01-03T02:14:55.911Z,26.4
2018-01-03T02:17:52.865Z,26.6
2018-01-03T02:20:50.037Z,26.6
2018-01-03T02:23:46.904Z,26.6
2018-01-03T02:26:44.074Z,26.7
2018-01-03T02:29:40.793Z,26.7
2018-01-03T02:32:37.891Z,26.8
2018-01-03T02:35:34.909Z,26.9
2018-01-03T02:41:29.942Z,27
2018-01-03T02:44:26.051Z,27.1
2018-01-03T02:47:23.086Z,27.2
2018-01-03T02:50:20.039Z,27.3
2018-01-03T02:59:11.022Z,27.5
2018-01-03T03:02:08.014Z,27.5
2018-01-03T03:08:01.889Z,27.5
2018-01-03T03:10:58.869Z,27.6
2018-01-03T03:16:53.263Z,27.8
2018-01-03T03:22:47.965Z,27.9
2018-01-03T03:25:44.029Z,28
2018-01-03T03:28:40.949Z,28.2
2018-01-03T03:31:37.975Z,28.2
2018-01-03T03:34:34.965Z,28.2
2018-01-03T03:40:29.934Z,28.4
2018-01-03T03:46:23.114Z,28.4
2018-01-03T03:49:19.854Z,28.4
2018-01-03T03:52:17.048Z,28.5
2018-01-03T03:55:13.906Z,28.6
2018-01-03T03:58:11.022Z,28.6
2018-01-03T04:07:02.071Z,28.7
2018-01-03T04:12:55.926Z,28.8
2018-01-03T04:18:49.951Z,28.7
2018-01-03T04:21:46.975Z,28.8
2018-01-03T04:24:44.986Z,28.8
2018-01-03T04:27:40.928Z,28.8
2018-01-03T04:30:38.017Z,28.8
2018-01-03T04:33:34.999Z,28.9
2018-01-03T04:42:27.237Z,29.2
2018-01-03T04:48:21.165Z,29.4
2018-01-03T04:54:14.999Z,29.6
2018-01-03T05:00:08.005Z,29.7
2018-01-03T05:03:04.937Z,29.8
2018-01-03T05:11:55.979Z,29.7
2018-01-03T05:17:50.054Z,29.8
2018-01-03T05:20:46.988Z,29.9
2018-01-03T05:26:41.173Z,30
2018-01-03T05:29:37.916Z,30.1
2018-01-03T05:38:29.074Z,30.3
2018-01-03T05:41:25.940Z,30.3
2018-01-03T05:44:22.955Z,30.4
2018-01-03T05:47:19.955Z,30.4
2018-01-03T05:53:13.993Z,30.6
2018-01-03T05:59:09.001Z,30.6
2018-01-03T06:02:04.946Z,30.6
2018-01-03T06:07:59.141Z,30.7
2018-01-03T06:10:56.104Z,30.8
2018-01-03T06:13:54.054Z,30.9
2018-01-03T06:16:49.950Z,31
2018-01-03T06:19:47.011Z,31
2018-01-03T06:22:44.079Z,31.1
2018-01-03T06:25:40.987Z,31.1
2018-01-03T06:28:37.923Z,31.2
2018-01-03T06:31:34.981Z,31.2
2018-01-03T06:34:31.922Z,31.2
2018-01-03T06:37:29.033Z,31.2
2018-01-03T06:40:25.924Z,31.3
2018-01-03T06:43:24.053Z,31.3
2018-01-03T06:46:19.997Z,31.3
2018-01-03T06:49:16.978Z,31.4
2018-01-03T06:55:11.196Z,31.4
2018-01-03T06:58:08.210Z,31.4
2018-01-03T07:04:02.243Z,31.5
2018-01-03T07:06:59.005Z,31.6
2018-01-03T07:09:57.080Z,31.5
2018-01-03T07:12:54.073Z,31.5
2018-01-03T07:15:51.312Z,31.5
2018-01-03T07:18:47.192Z,31.5
2018-01-03T07:21:43.995Z,31.6
2018-01-03T07:27:38.037Z,31.6
2018-01-03T07:30:35.028Z,31.6
2018-01-03T07:33:32.061Z,31.7
2018-01-03T07:39:27.416Z,31.6
2018-01-03T07:42:23.977Z,31.7
2018-01-03T07:45:20.076Z,31.8
2018-01-03T07:48:18.201Z,31.7
2018-01-03T07:51:14.027Z,31.7
2018-01-03T07:54:10.979Z,31.8
2018-01-03T07:57:08.120Z,31.7
2018-01-03T08:00:05.045Z,31.8
2018-01-03T08:05:59.095Z,31.7
2018-01-03T08:08:56.129Z,31.7
2018-01-03T08:11:53.522Z,31.7
2018-01-03T08:14:50.055Z,31.6
2018-01-03T08:17:48.173Z,31.6
2018-01-03T08:20:44.055Z,31.6
2018-01-03T08:23:41.568Z,31.7
2018-01-03T08:26:38.025Z,31.6
2018-01-03T08:29:35.115Z,31.6
2018-01-03T08:32:31.980Z,31.6
2018-01-03T08:38:26.361Z,31.5
2018-01-03T08:41:22.993Z,31.4
2018-01-03T08:44:20.570Z,31.5
2018-01-03T08:47:16.998Z,31.5
2018-01-03T08:50:14.045Z,31.4
2018-01-03T08:53:11.031Z,31.4
2018-01-03T08:56:09.119Z,31.4
2018-01-03T08:59:04.997Z,31.4
2018-01-03T09:02:03.205Z,31.3
2018-01-03T09:04:59.000Z,31.3
2018-01-03T09:07:56.413Z,31.3
2018-01-03T09:13:51.289Z,31.2
2018-01-03T09:16:47.165Z,31.2
2018-01-03T09:22:41.236Z,31.1
2018-01-03T09:25:38.289Z,31
2018-01-03T09:28:36.236Z,31
2018-01-03T09:31:33.122Z,31
2018-01-03T09:34:29.200Z,30.8
2018-01-03T09:37:27.121Z,30.9
2018-01-03T09:40:23.493Z,30.8
2018-01-03T09:43:20.067Z,30.7
2018-01-03T09:46:18.287Z,30.7
2018-01-03T09:49:14.143Z,30.6
2018-01-03T09:52:11.206Z,30.6
2018-01-03T10:04:00.183Z,30.3
2018-01-03T10:06:56.105Z,30.2
2018-01-03T10:09:54.256Z,30.1
2018-01-03T10:12:51.122Z,30.1
2018-01-03T10:15:48.245Z,30
2018-01-03T10:18:44.132Z,29.9
2018-01-03T10:21:42.138Z,29.8
2018-01-03T10:24:39.253Z,29.8
2018-01-03T10:27:35.434Z,29.8
2018-01-03T10:30:32.109Z,29.7
2018-01-03T10:33:30.533Z,29.6
2018-01-03T10:42:21.361Z,29.5
2018-01-03T10:45:18.092Z,29.5
2018-01-03T10:48:15.172Z,29.4
2018-01-03T10:51:12.239Z,29.3
2018-01-03T10:54:09.208Z,29.3
2018-01-03T10:57:06.068Z,29.2
2018-01-03T11:00:03.277Z,29.2
2018-01-03T11:05:57.345Z,29.2
2018-01-03T11:08:54.108Z,29.1
2018-01-03T11:11:51.504Z,29
2018-01-03T11:14:48.251Z,29
2018-01-03T11:17:45.222Z,29
2018-01-03T11:20:42.346Z,29
2018-01-03T11:23:39.327Z,28.9
2018-01-03T11:26:36.132Z,28.9
2018-01-03T11:29:33.183Z,28.8
2018-01-03T11:32:30.047Z,28.8
2018-01-03T11:35:27.190Z,28.7
2018-01-03T11:38:24.213Z,28.7
2018-01-03T11:41:21.168Z,28.6
2018-01-03T11:44:18.077Z,28.6
2018-01-03T11:47:15.286Z,28.5
2018-01-03T11:50:12.240Z,28.5
2018-01-03T11:53:09.213Z,28.4
2018-01-03T11:56:06.138Z,28.4
2018-01-03T11:59:03.242Z,28.4
2018-01-03T12:02:00.180Z,28.4
2018-01-03T12:04:57.236Z,28.3
2018-01-03T12:07:54.102Z,28.3
2018-01-03T12:10:51.298Z,28.2
2018-01-03T12:13:48.185Z,28.1
2018-01-03T12:16:45.412Z,28.1
2018-01-03T12:19:42.239Z,28
2018-01-03T12:22:39.180Z,28
2018-01-03T12:25:36.099Z,27.9
2018-01-03T12:31:30.309Z,27.8
2018-01-03T12:34:27.104Z,27.8
2018-01-03T12:37:25.228Z,27.7
2018-01-03T12:40:21.176Z,27.6
2018-01-03T12:43:18.331Z,27.6
2018-01-03T12:46:15.107Z,27.5
2018-01-03T12:49:12.547Z,27.5
2018-01-03T12:52:09.290Z,27.4
2018-01-03T12:55:06.330Z,27.4
2018-01-03T12:58:03.193Z,27.3
2018-01-03T13:01:01.142Z,27.3
2018-01-03T13:06:54.266Z,27.2
2018-01-03T13:09:51.191Z,27.1
2018-01-03T13:12:48.249Z,27.1
2018-01-03T13:15:45.154Z,27
2018-01-03T13:18:42.255Z,27
2018-01-03T13:21:39.490Z,27
2018-01-03T13:24:36.242Z,26.9
2018-01-03T13:27:33.158Z,26.9
2018-01-03T13:30:30.295Z,26.8
2018-01-03T13:33:27.232Z,26.8
2018-01-03T13:36:24.492Z,26.8
2018-01-03T13:39:21.202Z,26.7
2018-01-03T13:42:18.438Z,26.7
2018-01-03T13:45:15.195Z,26.6
2018-01-03T13:48:12.465Z,26.6
2018-01-03T13:51:09.492Z,26.6
2018-01-03T13:54:06.416Z,26.6
2018-01-03T13:57:03.150Z,26.6
2018-01-03T14:08:51.267Z,26.5
2018-01-03T14:11:48.233Z,26.4
2018-01-03T14:14:45.243Z,26.4
2018-01-03T14:20:41.453Z,26.4
2018-01-03T14:23:36.265Z,26.3
2018-01-03T14:26:33.237Z,26.3
2018-01-03T14:32:27.263Z,26.3
2018-01-03T14:38:21.401Z,26.3
2018-01-03T14:44:15.388Z,26.3
2018-01-03T14:47:12.354Z,26.2
2018-01-03T14:50:09.442Z,26.2
2018-01-03T14:53:06.201Z,26.2
2018-01-03T14:56:03.346Z,26.1
2018-01-03T14:59:00.403Z,26.1
2018-01-03T15:04:54.297Z,26.1
2018-01-03T15:07:51.279Z,26.1
2018-01-03T15:10:48.307Z,26.1
2018-01-03T15:13:45.371Z,26.1
2018-01-03T15:16:42.284Z,26
2018-01-03T15:22:36.248Z,26.1
2018-01-03T15:25:33.233Z,26.1
2018-01-03T15:28:30.308Z,26
2018-01-03T15:31:27.232Z,26.1
2018-01-03T15:34:24.361Z,26
2018-01-03T15:37:21.219Z,26
2018-01-03T15:40:18.385Z,26
2018-01-03T15:43:15.390Z,26
2018-01-03T15:46:12.729Z,26
2018-01-03T15:49:09.387Z,26
2018-01-03T15:55:03.293Z,26
2018-01-03T15:58:00.219Z,26.1
2018-01-03T16:06:51.394Z,26.2
2018-01-03T16:12:45.480Z,26.3
2018-01-03T16:15:42.399Z,26.3
2018-01-03T16:21:36.413Z,26.4
2018-01-03T16:30:27.342Z,26.4
2018-01-03T16:33:24.303Z,26.4
2018-01-03T16:36:21.304Z,26.4
2018-01-03T16:39:18.307Z,26.4
2018-01-03T16:42:15.376Z,26.4
2018-01-03T16:45:12.285Z,26.3
2018-01-03T16:48:09.378Z,26.3
2018-01-03T16:51:06.295Z,26.2
2018-01-03T16:54:03.461Z,26.2
2018-01-03T16:59:57.441Z,26
2018-01-03T17:02:54.349Z,26
2018-01-03T17:05:51.326Z,26
2018-01-03T17:08:48.689Z,25.9
2018-01-03T17:11:45.347Z,25.9
2018-01-03T17:14:42.335Z,25.8
2018-01-03T17:17:39.352Z,25.8
2018-01-03T17:26:30.333Z,25.6
2018-01-03T17:29:27.762Z,25.6
2018-01-03T17:32:24.546Z,25.6
2018-01-03T17:35:21.387Z,25.5
2018-01-03T17:38:18.495Z,25.6
2018-01-03T17:41:16.355Z,25.4
2018-01-03T17:44:12.340Z,25.4
2018-01-03T17:50:06.342Z,25.3
2018-01-03T17:53:03.454Z,25.3
2018-01-03T17:56:00.319Z,25.3
2018-01-03T17:58:57.532Z,25.2
2018-01-03T18:01:54.464Z,25.2
2018-01-03T18:04:51.291Z,25.2
2018-01-03T18:07:48.385Z,25.2
2018-01-03T18:10:46.500Z,25.2
2018-01-03T18:13:42.440Z,25.2
2018-01-03T18:16:39.391Z,25.1
2018-01-03T18:19:36.392Z,25
2018-01-03T18:22:33.288Z,25.1
2018-01-03T18:25:30.337Z,25.1
2018-01-03T18:28:27.495Z,25.1
2018-01-03T18:31:24.305Z,25
2018-01-03T18:34:21.302Z,25
2018-01-03T18:46:09.565Z,25
2018-01-03T18:49:06.349Z,25
2018-01-03T18:52:03.545Z,25
2018-01-03T18:55:00.408Z,24.9
2018-01-03T18:57:57.392Z,25
2018-01-03T19:00:54.456Z,24.9
2018-01-03T19:03:51.824Z,24.9
2018-01-03T19:06:48.468Z,25
2018-01-03T19:09:45.583Z,24.9
2018-01-03T19:12:42.337Z,25
2018-01-03T19:15:39.610Z,25
2018-01-03T19:18:36.371Z,25
2018-01-03T19:21:33.648Z,25
2018-01-03T19:24:30.302Z,24.9
2018-01-03T19:27:27.419Z,24.9
2018-01-03T19:30:24.351Z,24.9
2018-01-03T19:33:21.360Z,24.9
2018-01-03T19:36:18.369Z,24.9
2018-01-03T19:39:15.441Z,24.8
2018-01-03T19:42:12.329Z,24.8
2018-01-03T19:45:09.514Z,24.8
2018-01-03T19:48:06.303Z,24.8
2018-01-03T19:51:03.447Z,24.7
2018-01-03T19:54:00.441Z,24.7
2018-01-03T19:56:57.555Z,24.7
2018-01-03T19:59:54.357Z,24.7
2018-01-03T20:02:51.487Z,24.6
2018-01-03T20:05:48.425Z,24.6
2018-01-03T20:11:42.388Z,24.5
2018-01-03T20:14:39.369Z,24.5
2018-01-03T20:17:36.400Z,24.5
2018-01-03T20:20:33.389Z,24.6
2018-01-03T20:23:30.564Z,24.6
2018-01-03T20:26:27.668Z,24.6
2018-01-03T20:29:24.557Z,24.6
2018-01-03T20:32:21.384Z,24.6
2018-01-03T20:35:18.528Z,24.6
2018-01-03T20:38:15.402Z,24.6
2018-01-03T20:41:12.596Z,24.6
2018-01-03T20:44:10.442Z,24.6
2018-01-03T20:47:06.484Z,24.6
2018-01-03T20:50:03.399Z,24.6
2018-01-03T20:53:00.483Z,24.6
2018-01-03T20:55:57.472Z,24.5
2018-01-03T20:58:54.542Z,24.5
2018-01-03T21:01:51.391Z,24.4
2018-01-03T21:07:45.504Z,24.4
2018-01-03T21:10:42.462Z,24.4
2018-01-03T21:16:36.577Z,24.4
2018-01-03T21:19:33.352Z,24.4
2018-01-03T21:22:30.439Z,24.3
2018-01-03T21:25:27.411Z,24.3
2018-01-03T21:28:24.550Z,24.3
2018-01-03T21:31:21.344Z,24.2
2018-01-03T21:37:15.492Z,24.2
2018-01-03T21:43:09.480Z,24.2
2018-01-03T21:46:06.440Z,24.2
2018-01-03T21:49:03.440Z,24.2
2018-01-03T21:54:57.583Z,24.1
2018-01-03T21:57:54.513Z,24.1
2018-01-03T22:00:51.530Z,24
2018-01-03T22:03:48.806Z,24
2018-01-03T22:06:46.493Z,24
2018-01-03T22:09:42.462Z,24
2018-01-03T22:12:39.556Z,24
2018-01-03T22:15:36.447Z,23.9
2018-01-03T22:18:33.643Z,23.9
2018-01-03T22:21:30.535Z,23.9
2018-01-03T22:24:27.553Z,23.9
2018-01-03T22:27:24.425Z,23.9
2018-01-03T22:30:21.494Z,23.9
2018-01-03T22:33:18.502Z,23.9
2018-01-03T22:36:15.494Z,23.9
2018-01-03T22:39:12.482Z,23.9
2018-01-03T22:42:09.589Z,23.8
2018-01-03T22:45:06.486Z,23.8
2018-01-03T22:48:03.475Z,23.8
2018-01-03T22:51:00.477Z,23.8
2018-01-03T22:53:58.629Z,23.8
2018-01-03T22:56:54.507Z,23.8
2018-01-03T22:59:51.496Z,23.8
2018-01-03T23:02:48.585Z,23.8
2018-01-03T23:05:46.716Z,23.8
2018-01-03T23:08:42.435Z,23.8
2018-01-03T23:11:39.567Z,23.8
2018-01-03T23:14:36.512Z,23.8
2018-01-03T23:17:33.564Z,23.7
2018-01-03T23:20:31.477Z,23.7
2018-01-03T23:23:27.585Z,23.6
2018-01-03T23:26:25.656Z,23.7
2018-01-03T23:29:21.520Z,23.6
2018-01-03T23:32:18.432Z,23.7
2018-01-03T23:35:15.499Z,23.7
2018-01-03T23:38:12.458Z,23.7
2018-01-03T23:41:09.449Z,23.7
2018-01-03T23:44:07.486Z,23.8
2018-01-03T23:47:03.572Z,23.7
2018-01-03T23:50:00.704Z,23.8
2018-01-03T23:52:57.585Z,23.8
2018-01-03T23:55:54.429Z,23.9
2018-01-03T23:58:51.624Z,23.9
